sensor_id;sensor_type;location;lat;lon;timestamp;temperature;humidity
24408;DHT22;12542;50.924;4.516;2024-03-02T00:02:19;7.10;99.90
24408;DHT22;12542;50.924;4.516;2024-03-02T00:04:45;7.10;99.90
24408;DHT22;12542;50.924;4.516;2024-03-02T00:07:14;7.00;99.90
24408;DHT22;12542;50.924;4.516;2024-03-02T00:09:40;7.10;99.90
24408;DHT22;12542;50.924;4.516;2024-03-02T00:12:06;7.00;99.90
24408;DHT22;12542;50.924;4.516;2024-03-02T00:14:32;7.00;99.90
24408;DHT22;12542;50.924;4.516;2024-03-02T00:16:57;7.00;99.90
24408;DHT22;12542;50.924;4.516;2024-03-02T00:19:26;7.00;99.90
24408;DHT22;12542;50.924;4.516;2024-03-02T00:21:52;7.10;99.90
24408;DHT22;12542;50.924;4.516;2024-03-02T00:24:21;7.00;99.90
24408;DHT22;12542;50.924;4.516;2024-03-02T00:26:50;6.80;99.90
24408;DHT22;12542;50.924;4.516;2024-03-02T00:29:16;6.80;99.90
24408;DHT22;12542;50.924;4.516;2024-03-02T00:31:44;6.80;99.90
24408;DHT22;12542;50.924;4.516;2024-03-02T00:34:13;6.80;99.90
24408;DHT22;12542;50.924;4.516;2024-03-02T00:36:41;6.80;99.90
24408;DHT22;12542;50.924;4.516;2024-03-02T00:39:07;6.70;99.90
24408;DHT22;12542;50.924;4.516;2024-03-02T00:41:34;6.70;99.90
24408;DHT22;12542;50.924;4.516;2024-03-02T00:44:02;6.80;99.90
24408;DHT22;12542;50.924;4.516;2024-03-02T00:46:33;6.80;99.90
24408;DHT22;12542;50.924;4.516;2024-03-02T00:49:00;6.80;99.90
24408;DHT22;12542;50.924;4.516;2024-03-02T00:51:28;6.80;99.90
24408;DHT22;12542;50.924;4.516;2024-03-02T00:53:55;6.90;99.90
24408;DHT22;12542;50.924;4.516;2024-03-02T00:56:22;6.80;99.90
24408;DHT22;12542;50.924;4.516;2024-03-02T00:58:48;6.80;99.90
24408;DHT22;12542;50.924;4.516;2024-03-02T01:01:14;6.80;99.90
24408;DHT22;12542;50.924;4.516;2024-03-02T01:03:39;6.70;99.90
24408;DHT22;12542;50.924;4.516;2024-03-02T01:06:07;6.80;99.90
24408;DHT22;12542;50.924;4.516;2024-03-02T01:08:34;6.80;99.90
24408;DHT22;12542;50.924;4.516;2024-03-02T01:11:00;6.80;99.90
24408;DHT22;12542;50.924;4.516;2024-03-02T01:13:26;6.80;99.90
24408;DHT22;12542;50.924;4.516;2024-03-02T01:15:51;6.80;99.90
24408;DHT22;12542;50.924;4.516;2024-03-02T01:18:20;6.70;99.90
24408;DHT22;12542;50.924;4.516;2024-03-02T01:20:48;6.80;99.90
24408;DHT22;12542;50.924;4.516;2024-03-02T01:23:14;6.70;99.90
24408;DHT22;12542;50.924;4.516;2024-03-02T01:25:39;6.80;99.90
24408;DHT22;12542;50.924;4.516;2024-03-02T01:28:05;6.80;99.90
24408;DHT22;12542;50.924;4.516;2024-03-02T01:30:31;6.80;99.90
24408;DHT22;12542;50.924;4.516;2024-03-02T01:32:58;6.80;99.90
24408;DHT22;12542;50.924;4.516;2024-03-02T01:35:25;6.80;99.90
24408;DHT22;12542;50.924;4.516;2024-03-02T01:37:52;6.80;99.90
24408;DHT22;12542;50.924;4.516;2024-03-02T01:40:18;6.80;99.90
24408;DHT22;12542;50.924;4.516;2024-03-02T01:42:44;6.80;99.90
24408;DHT22;12542;50.924;4.516;2024-03-02T01:45:10;6.70;99.90
24408;DHT22;12542;50.924;4.516;2024-03-02T01:47:36;6.70;99.90
24408;DHT22;12542;50.924;4.516;2024-03-02T01:50:02;6.70;99.90
24408;DHT22;12542;50.924;4.516;2024-03-02T01:52:28;6.70;99.90
24408;DHT22;12542;50.924;4.516;2024-03-02T01:54:54;6.70;99.90
24408;DHT22;12542;50.924;4.516;2024-03-02T01:57:20;6.70;99.90
24408;DHT22;12542;50.924;4.516;2024-03-02T01:59:46;6.70;99.90
24408;DHT22;12542;50.924;4.516;2024-03-02T02:02:18;6.70;99.90
24408;DHT22;12542;50.924;4.516;2024-03-02T02:04:45;6.70;99.90
24408;DHT22;12542;50.924;4.516;2024-03-02T02:07:11;6.80;99.90
24408;DHT22;12542;50.924;4.516;2024-03-02T02:09:37;6.80;99.90
24408;DHT22;12542;50.924;4.516;2024-03-02T02:12:02;6.80;99.90
24408;DHT22;12542;50.924;4.516;2024-03-02T02:14:32;6.90;99.90
24408;DHT22;12542;50.924;4.516;2024-03-02T02:16:57;6.90;99.90
24408;DHT22;12542;50.924;4.516;2024-03-02T02:19:23;6.90;99.90
24408;DHT22;12542;50.924;4.516;2024-03-02T02:21:49;6.90;99.90
24408;DHT22;12542;50.924;4.516;2024-03-02T02:24:17;6.90;99.90
24408;DHT22;12542;50.924;4.516;2024-03-02T02:26:42;7.00;99.90
24408;DHT22;12542;50.924;4.516;2024-03-02T02:29:08;6.90;99.90
24408;DHT22;12542;50.924;4.516;2024-03-02T02:31:40;7.00;99.90
24408;DHT22;12542;50.924;4.516;2024-03-02T02:34:06;7.10;99.90
24408;DHT22;12542;50.924;4.516;2024-03-02T02:36:38;7.00;99.90
24408;DHT22;12542;50.924;4.516;2024-03-02T02:39:05;7.00;99.90
24408;DHT22;12542;50.924;4.516;2024-03-02T02:41:32;7.00;99.90
24408;DHT22;12542;50.924;4.516;2024-03-02T02:43:57;6.90;99.90
24408;DHT22;12542;50.924;4.516;2024-03-02T02:46:23;7.00;99.90
24408;DHT22;12542;50.924;4.516;2024-03-02T02:48:49;7.10;99.90
24408;DHT22;12542;50.924;4.516;2024-03-02T02:51:16;7.00;99.90
24408;DHT22;12542;50.924;4.516;2024-03-02T02:53:42;7.00;99.90
24408;DHT22;12542;50.924;4.516;2024-03-02T02:56:08;6.90;99.90
24408;DHT22;12542;50.924;4.516;2024-03-02T02:58:36;6.90;99.90
24408;DHT22;12542;50.924;4.516;2024-03-02T03:01:02;6.90;99.90
24408;DHT22;12542;50.924;4.516;2024-03-02T03:03:28;6.90;99.90
24408;DHT22;12542;50.924;4.516;2024-03-02T03:05:53;6.90;99.90
24408;DHT22;12542;50.924;4.516;2024-03-02T03:08:19;6.90;99.90
24408;DHT22;12542;50.924;4.516;2024-03-02T03:10:45;6.80;99.90
24408;DHT22;12542;50.924;4.516;2024-03-02T03:13:10;6.80;99.90
24408;DHT22;12542;50.924;4.516;2024-03-02T03:15:36;6.80;99.90
24408;DHT22;12542;50.924;4.516;2024-03-02T03:18:05;6.80;99.90
24408;DHT22;12542;50.924;4.516;2024-03-02T03:20:31;6.70;99.90
24408;DHT22;12542;50.924;4.516;2024-03-02T03:22:57;6.70;99.90
24408;DHT22;12542;50.924;4.516;2024-03-02T03:25:23;6.70;99.90
24408;DHT22;12542;50.924;4.516;2024-03-02T03:27:49;6.60;99.90
24408;DHT22;12542;50.924;4.516;2024-03-02T03:30:18;6.50;99.90
24408;DHT22;12542;50.924;4.516;2024-03-02T03:32:46;6.50;99.90
24408;DHT22;12542;50.924;4.516;2024-03-02T03:35:13;6.50;99.90
24408;DHT22;12542;50.924;4.516;2024-03-02T03:37:40;6.50;99.90
24408;DHT22;12542;50.924;4.516;2024-03-02T03:40:06;6.40;99.90
24408;DHT22;12542;50.924;4.516;2024-03-02T03:42:38;6.40;99.90
24408;DHT22;12542;50.924;4.516;2024-03-02T03:45:05;6.40;99.90
24408;DHT22;12542;50.924;4.516;2024-03-02T03:47:34;6.40;99.90
24408;DHT22;12542;50.924;4.516;2024-03-02T03:50:00;6.40;99.90
24408;DHT22;12542;50.924;4.516;2024-03-02T03:52:27;6.40;99.90
24408;DHT22;12542;50.924;4.516;2024-03-02T03:54:52;6.50;99.90
24408;DHT22;12542;50.924;4.516;2024-03-02T03:57:18;6.50;99.90
24408;DHT22;12542;50.924;4.516;2024-03-02T03:59:46;6.40;99.90
24408;DHT22;12542;50.924;4.516;2024-03-02T04:02:12;6.40;99.90
24408;DHT22;12542;50.924;4.516;2024-03-02T04:04:38;6.40;99.90
24408;DHT22;12542;50.924;4.516;2024-03-02T04:07:04;6.30;99.90
24408;DHT22;12542;50.924;4.516;2024-03-02T04:09:29;6.40;99.90
24408;DHT22;12542;50.924;4.516;2024-03-02T04:11:55;6.40;99.90
24408;DHT22;12542;50.924;4.516;2024-03-02T04:14:21;6.40;99.90
24408;DHT22;12542;50.924;4.516;2024-03-02T04:16:46;6.40;99.90
24408;DHT22;12542;50.924;4.516;2024-03-02T04:19:12;6.40;99.90
24408;DHT22;12542;50.924;4.516;2024-03-02T04:21:40;6.40;99.90
24408;DHT22;12542;50.924;4.516;2024-03-02T04:24:05;6.40;99.90
24408;DHT22;12542;50.924;4.516;2024-03-02T04:26:31;6.40;99.90
24408;DHT22;12542;50.924;4.516;2024-03-02T04:28:56;6.30;99.90
24408;DHT22;12542;50.924;4.516;2024-03-02T04:31:22;6.30;99.90
24408;DHT22;12542;50.924;4.516;2024-03-02T04:33:48;6.30;99.90
24408;DHT22;12542;50.924;4.516;2024-03-02T04:36:13;6.20;99.90
24408;DHT22;12542;50.924;4.516;2024-03-02T04:38:39;6.20;99.90
24408;DHT22;12542;50.924;4.516;2024-03-02T04:41:05;6.20;99.90
24408;DHT22;12542;50.924;4.516;2024-03-02T04:43:32;6.10;99.90
24408;DHT22;12542;50.924;4.516;2024-03-02T04:46:00;6.00;99.90
24408;DHT22;12542;50.924;4.516;2024-03-02T04:48:26;5.90;99.90
24408;DHT22;12542;50.924;4.516;2024-03-02T04:50:52;6.00;99.90
24408;DHT22;12542;50.924;4.516;2024-03-02T04:53:18;5.90;99.90
24408;DHT22;12542;50.924;4.516;2024-03-02T04:55:44;6.00;99.90
24408;DHT22;12542;50.924;4.516;2024-03-02T04:58:09;5.90;99.90
24408;DHT22;12542;50.924;4.516;2024-03-02T05:00:35;6.00;99.90
24408;DHT22;12542;50.924;4.516;2024-03-02T05:03:03;6.10;99.90
24408;DHT22;12542;50.924;4.516;2024-03-02T05:05:29;6.10;99.90
24408;DHT22;12542;50.924;4.516;2024-03-02T05:07:57;6.20;99.90
24408;DHT22;12542;50.924;4.516;2024-03-02T05:10:23;6.30;99.90
24408;DHT22;12542;50.924;4.516;2024-03-02T05:12:49;6.20;99.90
24408;DHT22;12542;50.924;4.516;2024-03-02T05:15:22;6.10;99.90
24408;DHT22;12542;50.924;4.516;2024-03-02T05:17:48;6.00;99.90
24408;DHT22;12542;50.924;4.516;2024-03-02T05:20:13;6.00;99.90
24408;DHT22;12542;50.924;4.516;2024-03-02T05:22:39;6.00;99.90
24408;DHT22;12542;50.924;4.516;2024-03-02T05:25:06;6.00;99.90
24408;DHT22;12542;50.924;4.516;2024-03-02T05:27:34;5.90;99.90
24408;DHT22;12542;50.924;4.516;2024-03-02T05:30:00;5.80;99.90
24408;DHT22;12542;50.924;4.516;2024-03-02T05:32:26;5.60;99.90
24408;DHT22;12542;50.924;4.516;2024-03-02T05:34:51;5.70;99.90
24408;DHT22;12542;50.924;4.516;2024-03-02T05:37:17;5.70;99.90
24408;DHT22;12542;50.924;4.516;2024-03-02T05:39:43;5.80;99.90
24408;DHT22;12542;50.924;4.516;2024-03-02T05:42:09;5.70;99.90
24408;DHT22;12542;50.924;4.516;2024-03-02T05:44:38;5.80;99.90
24408;DHT22;12542;50.924;4.516;2024-03-02T05:47:04;6.00;99.90
24408;DHT22;12542;50.924;4.516;2024-03-02T05:49:30;6.10;99.90
24408;DHT22;12542;50.924;4.516;2024-03-02T05:51:56;6.10;99.90
24408;DHT22;12542;50.924;4.516;2024-03-02T05:54:22;6.00;99.90
24408;DHT22;12542;50.924;4.516;2024-03-02T05:56:47;5.90;99.90
24408;DHT22;12542;50.924;4.516;2024-03-02T05:59:13;6.00;99.90
24408;DHT22;12542;50.924;4.516;2024-03-02T06:01:44;5.80;99.90
24408;DHT22;12542;50.924;4.516;2024-03-02T06:04:12;6.00;99.90
24408;DHT22;12542;50.924;4.516;2024-03-02T06:06:39;6.10;99.90
24408;DHT22;12542;50.924;4.516;2024-03-02T06:09:05;6.20;99.90
24408;DHT22;12542;50.924;4.516;2024-03-02T06:11:35;6.20;99.90
24408;DHT22;12542;50.924;4.516;2024-03-02T06:14:01;6.20;99.90
24408;DHT22;12542;50.924;4.516;2024-03-02T06:16:28;6.10;99.90
24408;DHT22;12542;50.924;4.516;2024-03-02T06:18:55;6.10;99.90
24408;DHT22;12542;50.924;4.516;2024-03-02T06:21:26;6.10;99.90
24408;DHT22;12542;50.924;4.516;2024-03-02T06:23:54;6.10;99.90
24408;DHT22;12542;50.924;4.516;2024-03-02T06:26:20;5.90;99.90
24408;DHT22;12542;50.924;4.516;2024-03-02T06:28:45;5.60;99.90
24408;DHT22;12542;50.924;4.516;2024-03-02T06:31:11;5.70;99.90
24408;DHT22;12542;50.924;4.516;2024-03-02T06:33:37;5.60;99.90
24408;DHT22;12542;50.924;4.516;2024-03-02T06:36:03;5.70;99.90
24408;DHT22;12542;50.924;4.516;2024-03-02T06:38:29;5.70;99.90
24408;DHT22;12542;50.924;4.516;2024-03-02T06:40:57;5.70;99.90
24408;DHT22;12542;50.924;4.516;2024-03-02T06:43:23;5.70;99.90
24408;DHT22;12542;50.924;4.516;2024-03-02T06:45:52;5.70;99.90
24408;DHT22;12542;50.924;4.516;2024-03-02T06:48:18;5.70;99.90
24408;DHT22;12542;50.924;4.516;2024-03-02T06:50:49;5.70;99.90
24408;DHT22;12542;50.924;4.516;2024-03-02T06:53:15;5.70;99.90
24408;DHT22;12542;50.924;4.516;2024-03-02T06:55:43;5.80;99.90
24408;DHT22;12542;50.924;4.516;2024-03-02T06:58:11;5.80;99.90
24408;DHT22;12542;50.924;4.516;2024-03-02T07:00:36;5.90;99.90
24408;DHT22;12542;50.924;4.516;2024-03-02T07:03:02;5.90;99.90
24408;DHT22;12542;50.924;4.516;2024-03-02T07:05:28;5.90;99.90
24408;DHT22;12542;50.924;4.516;2024-03-02T07:07:53;5.90;99.90
24408;DHT22;12542;50.924;4.516;2024-03-02T07:10:19;6.10;99.90
24408;DHT22;12542;50.924;4.516;2024-03-02T07:12:45;6.40;99.90
24408;DHT22;12542;50.924;4.516;2024-03-02T07:15:10;6.80;99.90
24408;DHT22;12542;50.924;4.516;2024-03-02T07:17:47;7.00;99.90
24408;DHT22;12542;50.924;4.516;2024-03-02T07:20:12;6.90;99.90
24408;DHT22;12542;50.924;4.516;2024-03-02T07:22:38;6.80;99.90
24408;DHT22;12542;50.924;4.516;2024-03-02T07:25:05;6.70;99.90
24408;DHT22;12542;50.924;4.516;2024-03-02T07:27:32;6.90;99.90
24408;DHT22;12542;50.924;4.516;2024-03-02T07:29:59;7.20;99.90
24408;DHT22;12542;50.924;4.516;2024-03-02T07:32:24;7.40;99.90
24408;DHT22;12542;50.924;4.516;2024-03-02T07:34:50;7.90;99.90
24408;DHT22;12542;50.924;4.516;2024-03-02T07:37:16;8.50;99.90
24408;DHT22;12542;50.924;4.516;2024-03-02T07:39:44;9.00;99.90
24408;DHT22;12542;50.924;4.516;2024-03-02T07:42:10;9.30;99.90
24408;DHT22;12542;50.924;4.516;2024-03-02T07:44:35;9.50;99.90
24408;DHT22;12542;50.924;4.516;2024-03-02T07:47:01;9.70;99.90
24408;DHT22;12542;50.924;4.516;2024-03-02T07:49:27;10.30;99.90
24408;DHT22;12542;50.924;4.516;2024-03-02T07:51:52;10.60;99.90
24408;DHT22;12542;50.924;4.516;2024-03-02T07:54:18;10.40;99.90
24408;DHT22;12542;50.924;4.516;2024-03-02T07:56:45;10.80;99.90
24408;DHT22;12542;50.924;4.516;2024-03-02T07:59:10;10.90;99.90
24408;DHT22;12542;50.924;4.516;2024-03-02T08:01:36;11.40;99.90
24408;DHT22;12542;50.924;4.516;2024-03-02T08:04:02;11.10;99.90
24408;DHT22;12542;50.924;4.516;2024-03-02T08:06:31;11.10;99.90
24408;DHT22;12542;50.924;4.516;2024-03-02T08:08:57;11.10;99.90
24408;DHT22;12542;50.924;4.516;2024-03-02T08:11:23;12.00;99.90
24408;DHT22;12542;50.924;4.516;2024-03-02T08:13:49;12.10;99.90
24408;DHT22;12542;50.924;4.516;2024-03-02T08:16:16;11.40;99.90
24408;DHT22;12542;50.924;4.516;2024-03-02T08:18:45;11.60;99.90
24408;DHT22;12542;50.924;4.516;2024-03-02T08:21:11;11.30;99.90
24408;DHT22;12542;50.924;4.516;2024-03-02T08:23:37;11.40;99.90
24408;DHT22;12542;50.924;4.516;2024-03-02T08:26:03;11.70;99.90
24408;DHT22;12542;50.924;4.516;2024-03-02T08:28:29;11.80;99.90
24408;DHT22;12542;50.924;4.516;2024-03-02T08:30:58;11.20;99.90
24408;DHT22;12542;50.924;4.516;2024-03-02T08:33:25;11.60;99.90
24408;DHT22;12542;50.924;4.516;2024-03-02T08:35:51;11.90;99.90
24408;DHT22;12542;50.924;4.516;2024-03-02T08:38:17;11.60;99.90
24408;DHT22;12542;50.924;4.516;2024-03-02T08:40:44;12.00;99.90
24408;DHT22;12542;50.924;4.516;2024-03-02T08:43:10;11.90;99.90
24408;DHT22;12542;50.924;4.516;2024-03-02T08:45:36;11.70;99.90
24408;DHT22;12542;50.924;4.516;2024-03-02T08:48:08;11.70;99.90
24408;DHT22;12542;50.924;4.516;2024-03-02T08:50:36;12.10;99.90
24408;DHT22;12542;50.924;4.516;2024-03-02T08:53:03;12.40;99.90
24408;DHT22;12542;50.924;4.516;2024-03-02T08:55:29;12.20;99.90
24408;DHT22;12542;50.924;4.516;2024-03-02T08:57:55;12.20;99.90
24408;DHT22;12542;50.924;4.516;2024-03-02T09:00:23;12.00;99.90
24408;DHT22;12542;50.924;4.516;2024-03-02T09:02:50;11.40;99.90
24408;DHT22;12542;50.924;4.516;2024-03-02T09:05:16;11.70;99.90
24408;DHT22;12542;50.924;4.516;2024-03-02T09:07:41;11.90;99.90
24408;DHT22;12542;50.924;4.516;2024-03-02T09:10:08;12.10;99.90
24408;DHT22;12542;50.924;4.516;2024-03-02T09:12:34;12.60;99.90
24408;DHT22;12542;50.924;4.516;2024-03-02T09:15:01;12.40;99.90
24408;DHT22;12542;50.924;4.516;2024-03-02T09:17:27;11.60;99.90
24408;DHT22;12542;50.924;4.516;2024-03-02T09:19:53;11.70;99.90
24408;DHT22;12542;50.924;4.516;2024-03-02T09:22:19;11.50;99.90
24408;DHT22;12542;50.924;4.516;2024-03-02T09:24:44;11.40;99.90
24408;DHT22;12542;50.924;4.516;2024-03-02T09:27:10;11.60;99.90
24408;DHT22;12542;50.924;4.516;2024-03-02T09:29:36;11.30;99.90
24408;DHT22;12542;50.924;4.516;2024-03-02T09:32:02;11.10;99.90
24408;DHT22;12542;50.924;4.516;2024-03-02T09:34:27;11.40;99.90
24408;DHT22;12542;50.924;4.516;2024-03-02T09:36:53;11.20;99.90
24408;DHT22;12542;50.924;4.516;2024-03-02T09:39:19;11.40;99.90
24408;DHT22;12542;50.924;4.516;2024-03-02T09:41:45;11.50;99.90
24408;DHT22;12542;50.924;4.516;2024-03-02T09:44:12;11.50;99.90
24408;DHT22;12542;50.924;4.516;2024-03-02T09:46:38;11.60;99.90
24408;DHT22;12542;50.924;4.516;2024-03-02T09:49:04;11.40;99.90
24408;DHT22;12542;50.924;4.516;2024-03-02T09:51:31;11.40;99.90
24408;DHT22;12542;50.924;4.516;2024-03-02T09:53:56;11.60;99.90
24408;DHT22;12542;50.924;4.516;2024-03-02T09:56:22;12.20;99.90
24408;DHT22;12542;50.924;4.516;2024-03-02T09:58:48;12.50;99.90
24408;DHT22;12542;50.924;4.516;2024-03-02T10:01:14;12.90;99.90
24408;DHT22;12542;50.924;4.516;2024-03-02T10:03:40;13.00;99.90
24408;DHT22;12542;50.924;4.516;2024-03-02T10:06:19;12.80;99.90
24408;DHT22;12542;50.924;4.516;2024-03-02T10:08:45;12.50;99.90
24408;DHT22;12542;50.924;4.516;2024-03-02T10:11:11;12.30;99.90
24408;DHT22;12542;50.924;4.516;2024-03-02T10:13:49;12.10;99.90
24408;DHT22;12542;50.924;4.516;2024-03-02T10:16:15;12.30;99.90
24408;DHT22;12542;50.924;4.516;2024-03-02T10:18:42;12.30;99.90
24408;DHT22;12542;50.924;4.516;2024-03-02T10:21:14;12.40;99.90
24408;DHT22;12542;50.924;4.516;2024-03-02T10:23:43;12.50;99.90
24408;DHT22;12542;50.924;4.516;2024-03-02T10:26:18;12.20;99.90
24408;DHT22;12542;50.924;4.516;2024-03-02T10:28:47;12.40;99.90
24408;DHT22;12542;50.924;4.516;2024-03-02T10:31:13;12.50;99.90
24408;DHT22;12542;50.924;4.516;2024-03-02T10:33:40;12.30;99.90
24408;DHT22;12542;50.924;4.516;2024-03-02T10:36:05;12.10;99.90
24408;DHT22;12542;50.924;4.516;2024-03-02T10:38:31;12.00;99.90
24408;DHT22;12542;50.924;4.516;2024-03-02T10:40:58;12.30;99.90
24408;DHT22;12542;50.924;4.516;2024-03-02T10:43:25;12.20;99.90
24408;DHT22;12542;50.924;4.516;2024-03-02T10:45:52;12.30;99.90
24408;DHT22;12542;50.924;4.516;2024-03-02T10:48:18;12.50;99.90
24408;DHT22;12542;50.924;4.516;2024-03-02T10:50:44;12.40;99.90
24408;DHT22;12542;50.924;4.516;2024-03-02T10:53:10;12.60;99.90
24408;DHT22;12542;50.924;4.516;2024-03-02T10:55:36;13.10;99.90
24408;DHT22;12542;50.924;4.516;2024-03-02T10:58:04;13.00;99.90
24408;DHT22;12542;50.924;4.516;2024-03-02T11:00:33;13.00;99.90
24408;DHT22;12542;50.924;4.516;2024-03-02T11:03:05;13.10;99.90
24408;DHT22;12542;50.924;4.516;2024-03-02T11:05:40;13.00;99.90
24408;DHT22;12542;50.924;4.516;2024-03-02T11:08:08;12.70;99.90
24408;DHT22;12542;50.924;4.516;2024-03-02T11:10:40;12.40;99.90
24408;DHT22;12542;50.924;4.516;2024-03-02T11:13:09;12.60;99.90
24408;DHT22;12542;50.924;4.516;2024-03-02T11:15:37;12.60;99.90
24408;DHT22;12542;50.924;4.516;2024-03-02T11:18:06;12.60;99.90
24408;DHT22;12542;50.924;4.516;2024-03-02T11:20:39;12.80;99.90
24408;DHT22;12542;50.924;4.516;2024-03-02T11:23:06;12.90;99.90
24408;DHT22;12542;50.924;4.516;2024-03-02T11:25:33;12.80;99.90
24408;DHT22;12542;50.924;4.516;2024-03-02T11:28:00;12.90;99.90
24408;DHT22;12542;50.924;4.516;2024-03-02T11:33:05;13.40;99.90
24408;DHT22;12542;50.924;4.516;2024-03-02T11:35:41;13.60;99.90
24408;DHT22;12542;50.924;4.516;2024-03-02T11:38:09;13.20;99.90
24408;DHT22;12542;50.924;4.516;2024-03-02T11:40:35;13.20;99.90
24408;DHT22;12542;50.924;4.516;2024-03-02T11:43:01;13.30;99.90
24408;DHT22;12542;50.924;4.516;2024-03-02T11:45:27;13.40;99.90
24408;DHT22;12542;50.924;4.516;2024-03-02T11:47:57;13.60;99.90
24408;DHT22;12542;50.924;4.516;2024-03-02T11:50:46;13.60;99.90
24408;DHT22;12542;50.924;4.516;2024-03-02T11:53:12;13.00;99.90
24408;DHT22;12542;50.924;4.516;2024-03-02T11:55:39;12.50;99.90
24408;DHT22;12542;50.924;4.516;2024-03-02T11:58:06;12.50;99.90
24408;DHT22;12542;50.924;4.516;2024-03-02T12:00:32;12.80;99.90
24408;DHT22;12542;50.924;4.516;2024-03-02T12:03:03;13.20;99.90
24408;DHT22;12542;50.924;4.516;2024-03-02T12:05:30;13.30;99.90
24408;DHT22;12542;50.924;4.516;2024-03-02T12:07:57;13.20;99.90
24408;DHT22;12542;50.924;4.516;2024-03-02T12:10:24;13.20;99.90
24408;DHT22;12542;50.924;4.516;2024-03-02T12:13:00;13.20;99.90
24408;DHT22;12542;50.924;4.516;2024-03-02T12:15:27;13.00;99.90
24408;DHT22;12542;50.924;4.516;2024-03-02T12:17:57;13.00;99.90
24408;DHT22;12542;50.924;4.516;2024-03-02T12:20:24;13.00;99.90
24408;DHT22;12542;50.924;4.516;2024-03-02T12:22:51;12.90;99.90
24408;DHT22;12542;50.924;4.516;2024-03-02T12:25:20;12.70;99.90
24408;DHT22;12542;50.924;4.516;2024-03-02T12:27:49;13.00;99.90
24408;DHT22;12542;50.924;4.516;2024-03-02T12:30:19;13.10;99.90
24408;DHT22;12542;50.924;4.516;2024-03-02T12:32:47;13.10;99.90
24408;DHT22;12542;50.924;4.516;2024-03-02T12:35:14;12.90;99.90
24408;DHT22;12542;50.924;4.516;2024-03-02T12:37:47;12.80;99.90
24408;DHT22;12542;50.924;4.516;2024-03-02T12:40:14;12.70;99.90
24408;DHT22;12542;50.924;4.516;2024-03-02T12:42:41;12.80;99.90
24408;DHT22;12542;50.924;4.516;2024-03-02T12:45:10;12.60;99.90
24408;DHT22;12542;50.924;4.516;2024-03-02T12:47:40;12.70;99.90
24408;DHT22;12542;50.924;4.516;2024-03-02T12:50:07;12.80;99.90
24408;DHT22;12542;50.924;4.516;2024-03-02T12:52:33;12.80;99.90
24408;DHT22;12542;50.924;4.516;2024-03-02T12:55:04;12.90;99.90
24408;DHT22;12542;50.924;4.516;2024-03-02T12:57:31;12.90;99.90
24408;DHT22;12542;50.924;4.516;2024-03-02T13:00:04;12.80;99.90
24408;DHT22;12542;50.924;4.516;2024-03-02T13:02:40;12.70;99.90
24408;DHT22;12542;50.924;4.516;2024-03-02T13:05:07;13.00;99.90
24408;DHT22;12542;50.924;4.516;2024-03-02T13:07:37;13.30;99.90
24408;DHT22;12542;50.924;4.516;2024-03-02T13:10:03;13.50;99.90
24408;DHT22;12542;50.924;4.516;2024-03-02T13:12:30;13.40;99.90
24408;DHT22;12542;50.924;4.516;2024-03-02T13:14:58;13.70;99.90
24408;DHT22;12542;50.924;4.516;2024-03-02T13:17:24;13.80;99.90
24408;DHT22;12542;50.924;4.516;2024-03-02T13:19:57;13.60;99.90
24408;DHT22;12542;50.924;4.516;2024-03-02T13:22:24;13.40;99.90
24408;DHT22;12542;50.924;4.516;2024-03-02T13:24:50;13.30;99.90
24408;DHT22;12542;50.924;4.516;2024-03-02T13:27:17;13.30;99.90
24408;DHT22;12542;50.924;4.516;2024-03-02T13:29:49;13.20;99.90
24408;DHT22;12542;50.924;4.516;2024-03-02T13:32:15;13.00;99.90
24408;DHT22;12542;50.924;4.516;2024-03-02T13:34:41;12.90;99.90
24408;DHT22;12542;50.924;4.516;2024-03-02T13:37:07;12.80;99.90
24408;DHT22;12542;50.924;4.516;2024-03-02T13:39:33;12.80;99.90
24408;DHT22;12542;50.924;4.516;2024-03-02T13:42:06;12.80;99.90
24408;DHT22;12542;50.924;4.516;2024-03-02T13:44:33;12.90;99.90
24408;DHT22;12542;50.924;4.516;2024-03-02T13:47:00;12.90;99.90
24408;DHT22;12542;50.924;4.516;2024-03-02T13:49:26;12.90;99.90
24408;DHT22;12542;50.924;4.516;2024-03-02T13:52:08;12.90;99.90
24408;DHT22;12542;50.924;4.516;2024-03-02T13:54:42;12.90;99.90
24408;DHT22;12542;50.924;4.516;2024-03-02T13:57:09;13.00;99.90
24408;DHT22;12542;50.924;4.516;2024-03-02T13:59:35;13.00;99.90
24408;DHT22;12542;50.924;4.516;2024-03-02T14:02:02;13.10;99.90
24408;DHT22;12542;50.924;4.516;2024-03-02T14:04:32;13.10;99.90
24408;DHT22;12542;50.924;4.516;2024-03-02T14:06:59;13.20;99.90
24408;DHT22;12542;50.924;4.516;2024-03-02T14:09:26;13.30;99.90
24408;DHT22;12542;50.924;4.516;2024-03-02T14:11:53;13.30;99.90
24408;DHT22;12542;50.924;4.516;2024-03-02T14:14:19;13.30;99.90
24408;DHT22;12542;50.924;4.516;2024-03-02T14:16:44;13.20;99.90
24408;DHT22;12542;50.924;4.516;2024-03-02T14:19:11;13.20;99.90
24408;DHT22;12542;50.924;4.516;2024-03-02T14:21:37;13.10;99.90
24408;DHT22;12542;50.924;4.516;2024-03-02T14:24:03;13.10;99.90
24408;DHT22;12542;50.924;4.516;2024-03-02T14:26:29;13.10;99.90
24408;DHT22;12542;50.924;4.516;2024-03-02T14:28:55;13.20;99.90
24408;DHT22;12542;50.924;4.516;2024-03-02T14:31:21;13.10;99.90
24408;DHT22;12542;50.924;4.516;2024-03-02T14:33:47;13.00;99.90
24408;DHT22;12542;50.924;4.516;2024-03-02T14:36:12;13.10;99.90
24408;DHT22;12542;50.924;4.516;2024-03-02T14:38:38;13.10;99.90
24408;DHT22;12542;50.924;4.516;2024-03-02T14:41:04;13.00;99.90
24408;DHT22;12542;50.924;4.516;2024-03-02T14:43:33;13.00;99.90
24408;DHT22;12542;50.924;4.516;2024-03-02T14:45:59;13.00;99.90
24408;DHT22;12542;50.924;4.516;2024-03-02T14:48:27;13.00;99.90
24408;DHT22;12542;50.924;4.516;2024-03-02T14:50:52;12.90;99.90
24408;DHT22;12542;50.924;4.516;2024-03-02T14:53:18;13.00;99.90
24408;DHT22;12542;50.924;4.516;2024-03-02T14:55:44;13.10;99.90
24408;DHT22;12542;50.924;4.516;2024-03-02T14:58:09;13.10;99.90
24408;DHT22;12542;50.924;4.516;2024-03-02T15:00:35;13.20;99.90
24408;DHT22;12542;50.924;4.516;2024-03-02T15:03:01;13.10;99.90
24408;DHT22;12542;50.924;4.516;2024-03-02T15:05:27;13.10;99.90
24408;DHT22;12542;50.924;4.516;2024-03-02T15:07:53;13.10;99.90
24408;DHT22;12542;50.924;4.516;2024-03-02T15:10:21;13.00;99.90
24408;DHT22;12542;50.924;4.516;2024-03-02T15:12:46;12.90;99.90
24408;DHT22;12542;50.924;4.516;2024-03-02T15:15:12;12.90;99.90
24408;DHT22;12542;50.924;4.516;2024-03-02T15:17:38;12.90;99.90
24408;DHT22;12542;50.924;4.516;2024-03-02T15:20:04;12.80;99.90
24408;DHT22;12542;50.924;4.516;2024-03-02T15:22:32;12.70;99.90
24408;DHT22;12542;50.924;4.516;2024-03-02T15:25:03;12.60;99.90
24408;DHT22;12542;50.924;4.516;2024-03-02T15:27:29;12.40;99.90
24408;DHT22;12542;50.924;4.516;2024-03-02T15:29:54;12.20;99.90
24408;DHT22;12542;50.924;4.516;2024-03-02T15:32:22;12.00;99.90
24408;DHT22;12542;50.924;4.516;2024-03-02T15:34:48;12.00;99.90
24408;DHT22;12542;50.924;4.516;2024-03-02T15:37:14;11.90;99.90
24408;DHT22;12542;50.924;4.516;2024-03-02T15:39:40;11.90;99.90